Time;durP1;ratioP1;P1;durP2;ratioP2;P2;SDS_P1;SDS_P2;PMS_P1;PMS_P2;Temp;Humidity;BMP_temperature;BMP_pressure;BME280_temperature;BME280_humidity;BME280_pressure;Samples;Min_cycle;Max_cycle;Signal;HPM_P1;HPM_P2
2022/07/19 00:00:38;;;;;;;3.65;3.17;;;26.40;99.90;;;;;;5029143;28;20670;-76
2022/07/19 00:03:06;;;;;;;3.90;3.40;;;26.40;99.90;;;;;;5023497;28;20236;-76
2022/07/19 00:05:33;;;;;;;4.00;3.70;;;26.40;99.90;;;;;;5027898;28;20237;-76
2022/07/19 00:08:01;;;;;;;3.30;2.97;;;26.30;99.90;;;;;;5026431;28;20220;-75
2022/07/19 00:10:28;;;;;;;3.35;3.05;;;26.30;99.90;;;;;;5026162;28;20770;-75
2022/07/19 00:12:55;;;;;;;2.80;2.60;;;26.30;99.90;;;;;;5023248;28;20222;-75
2022/07/19 00:15:22;;;;;;;3.30;3.10;;;26.30;99.90;;;;;;5026096;28;20201;-75
2022/07/19 00:17:50;;;;;;;3.38;3.10;;;26.30;99.90;;;;;;5022308;28;20227;-75
2022/07/19 00:20:21;;;;;;;4.38;3.25;;;26.20;99.90;;;;;;5026643;28;20208;-74
2022/07/19 00:22:48;;;;;;;3.78;3.10;;;26.20;99.90;;;;;;5029590;28;20219;-74
2022/07/19 00:25:16;;;;;;;3.95;3.20;;;26.20;99.90;;;;;;5028431;28;20191;-75
2022/07/19 00:27:43;;;;;;;3.97;2.90;;;26.20;99.90;;;;;;5019475;28;20271;-75
2022/07/19 00:30:11;;;;;;;3.10;2.90;;;26.20;99.90;;;;;;5021062;28;20229;-75
2022/07/19 00:32:38;;;;;;;4.00;3.35;;;26.30;99.90;;;;;;5024449;28;20220;-74
2022/07/19 00:35:06;;;;;;;3.85;3.25;;;26.30;99.90;;;;;;5028049;28;20203;-75
2022/07/19 00:37:34;;;;;;;3.35;3.15;;;26.30;99.90;;;;;;5023083;28;20223;-76
2022/07/19 00:40:02;;;;;;;3.00;2.80;;;26.30;99.90;;;;;;5024209;28;20243;-75
2022/07/19 00:42:29;;;;;;;4.32;2.80;;;26.10;99.90;;;;;;5025047;28;20756;-74
2022/07/19 00:44:56;;;;;;;3.50;3.20;;;26.10;99.90;;;;;;5025013;28;20208;-75
2022/07/19 00:47:23;;;;;;;3.70;3.40;;;26.10;99.90;;;;;;5020178;28;20281;-76
2022/07/19 00:49:50;;;;;;;3.42;3.20;;;26.10;99.90;;;;;;5025334;28;20250;-76
2022/07/19 00:52:21;;;;;;;3.50;3.20;;;26.10;99.90;;;;;;5023239;28;20913;-75
2022/07/19 00:54:53;;;;;;;3.05;2.83;;;26.20;99.90;;;;;;5025860;28;20203;-75
2022/07/19 00:57:24;;;;;;;5.00;3.40;;;26.20;99.90;;;;;;5025855;28;20274;-75
2022/07/19 00:59:54;;;;;;;3.58;3.25;;;26.10;99.90;;;;;;5025561;28;20218;-76
2022/07/19 01:02:21;;;;;;;3.40;3.10;;;26.10;99.90;;;;;;5028595;28;20269;-76
2022/07/19 01:04:48;;;;;;;3.55;3.25;;;26.10;99.90;;;;;;5023512;28;20207;-76
2022/07/19 01:07:15;;;;;;;3.47;3.17;;;26.10;99.90;;;;;;5026969;28;20310;-76
2022/07/19 01:09:43;;;;;;;4.20;3.80;;;26.10;99.90;;;;;;5021690;28;20705;-76
2022/07/19 01:12:12;;;;;;;3.35;3.15;;;26.00;99.90;;;;;;5027696;28;20231;-76
2022/07/19 01:14:39;;;;;;;3.45;3.15;;;26.00;99.90;;;;;;5023216;28;20204;-76
2022/07/19 01:17:06;;;;;;;3.70;3.40;;;25.90;99.90;;;;;;5023547;28;20219;-75
2022/07/19 01:19:33;;;;;;;3.60;3.30;;;25.90;99.90;;;;;;5025973;28;20695;-76
2022/07/19 01:22:02;;;;;;;3.65;3.35;;;25.90;99.90;;;;;;5023788;28;20548;-76
2022/07/19 01:24:29;;;;;;;3.65;3.35;;;25.90;99.90;;;;;;5024766;28;20203;-76
2022/07/19 01:26:56;;;;;;;3.25;2.95;;;25.90;99.90;;;;;;5029273;28;20191;-76
2022/07/19 01:29:24;;;;;;;3.55;3.25;;;25.90;99.90;;;;;;5029777;28;20215;-76
2022/07/19 01:31:51;;;;;;;4.10;3.40;;;25.90;99.90;;;;;;5027359;28;20195;-75
2022/07/19 01:34:18;;;;;;;4.43;4.03;;;25.90;99.90;;;;;;5030302;28;20203;-74
2022/07/19 01:36:46;;;;;;;3.47;3.10;;;25.90;99.90;;;;;;5024183;28;20686;-76
2022/07/19 01:39:14;;;;;;;4.38;4.00;;;26.00;99.90;;;;;;5028272;28;20234;-76
2022/07/19 01:41:41;;;;;;;3.92;3.63;;;26.00;99.90;;;;;;5027080;28;20261;-75
2022/07/19 01:44:08;;;;;;;5.25;3.88;;;26.00;99.90;;;;;;5028796;28;20570;-74
2022/07/19 01:46:35;;;;;;;3.88;3.50;;;26.00;99.90;;;;;;5023671;28;20195;-75
2022/07/19 01:49:02;;;;;;;4.50;4.13;;;26.00;99.90;;;;;;5027946;28;20227;-75
2022/07/19 01:51:29;;;;;;;3.47;3.28;;;26.00;99.90;;;;;;5026978;28;20195;-74
2022/07/19 01:53:56;;;;;;;4.57;4.18;;;26.00;99.90;;;;;;5023804;28;20237;-75
2022/07/19 01:56:25;;;;;;;4.13;3.72;;;26.00;99.90;;;;;;5025457;28;20200;-74
2022/07/19 01:58:52;;;;;;;4.38;3.97;;;25.90;99.90;;;;;;5027256;28;20230;-75
2022/07/19 02:01:19;;;;;;;4.20;3.90;;;25.90;99.90;;;;;;5024388;28;20662;-76
2022/07/19 02:03:46;;;;;;;3.92;3.63;;;25.90;99.90;;;;;;5027667;28;20227;-74
2022/07/19 02:06:13;;;;;;;3.83;3.33;;;25.80;99.90;;;;;;5029304;28;20199;-75
2022/07/19 02:08:41;;;;;;;3.83;3.47;;;25.80;99.90;;;;;;5022556;28;20226;-75
2022/07/19 02:13:51;;;;;;;4.03;3.72;;;25.80;99.90;;;;;;5023920;28;20212;-76
2022/07/19 02:16:18;;;;;;;3.90;3.60;;;25.80;99.90;;;;;;5026633;28;20210;-77
2022/07/19 02:18:45;;;;;;;6.53;4.10;;;25.70;99.90;;;;;;5025153;28;20581;-75
2022/07/19 02:21:12;;;;;;;3.83;3.53;;;25.70;99.90;;;;;;5027272;28;21410;-75
2022/07/19 02:23:39;;;;;;;3.75;3.45;;;25.70;99.90;;;;;;5024677;28;20216;-76
2022/07/19 02:26:07;;;;;;;3.70;3.40;;;25.70;99.90;;;;;;5025462;28;20204;-74
2022/07/19 02:28:34;;;;;;;3.67;3.38;;;25.70;99.90;;;;;;5031137;28;20227;-77
2022/07/19 02:31:02;;;;;;;4.22;3.92;;;25.60;99.90;;;;;;5023938;28;20858;-78
2022/07/19 02:33:29;;;;;;;3.55;3.25;;;25.70;99.90;;;;;;5025199;28;20735;-75
2022/07/19 02:35:56;;;;;;;4.65;3.60;;;25.70;99.90;;;;;;5028304;28;20192;-74
2022/07/19 02:38:24;;;;;;;3.97;3.67;;;25.70;99.90;;;;;;5025812;28;20215;-77
2022/07/19 02:40:51;;;;;;;4.28;3.88;;;25.70;99.90;;;;;;5024493;28;20236;-75
2022/07/19 02:43:18;;;;;;;3.85;3.55;;;25.70;99.90;;;;;;5024680;28;20216;-78
2022/07/19 02:45:45;;;;;;;3.70;3.40;;;25.70;99.90;;;;;;5024385;28;20210;-75
2022/07/19 02:48:13;;;;;;;4.22;3.83;;;25.70;99.90;;;;;;5025185;28;20289;-78
2022/07/19 02:50:41;;;;;;;4.00;3.70;;;25.60;99.90;;;;;;5020113;28;20333;-77
2022/07/19 02:53:08;;;;;;;4.25;3.90;;;25.60;99.90;;;;;;5026800;28;20224;-75
2022/07/19 02:55:35;;;;;;;3.72;3.42;;;25.50;99.90;;;;;;5025376;28;20191;-76
2022/07/19 02:58:02;;;;;;;4.00;3.60;;;25.50;99.90;;;;;;5023021;28;20530;-74
2022/07/19 03:00:30;;;;;;;4.40;4.05;;;25.50;99.90;;;;;;5023485;28;21182;-77
2022/07/19 03:03:43;;;;;;;3.90;3.55;;;25.50;99.90;;;;;;5029286;28;20222;-74
2022/07/19 03:05:47;;;;;;;3.65;3.35;;;25.50;99.90;;;;;;5026014;28;20207;-77
2022/07/19 03:08:14;;;;;;;4.63;4.25;;;25.50;99.90;;;;;;5025006;28;20220;-77
2022/07/19 03:10:42;;;;;;;4.10;3.80;;;25.50;99.90;;;;;;5028724;28;20682;-77
2022/07/19 03:13:09;;;;;;;3.75;3.47;;;25.50;99.90;;;;;;5028358;28;20220;-74
2022/07/19 03:15:37;;;;;;;4.60;4.20;;;25.50;99.90;;;;;;5025960;28;21711;-76
2022/07/19 03:18:04;;;;;;;3.80;3.50;;;25.50;99.90;;;;;;5029616;28;20810;-75
2022/07/19 03:20:31;;;;;;;4.60;4.20;;;25.50;99.90;;;;;;5026001;28;20195;-74
2022/07/19 03:23:00;;;;;;;4.18;3.88;;;25.50;99.90;;;;;;5025767;28;20214;-77
2022/07/19 03:25:27;;;;;;;4.20;3.90;;;25.50;99.90;;;;;;5025105;28;20204;-75
2022/07/19 03:27:54;;;;;;;4.60;4.20;;;25.50;99.90;;;;;;5031880;28;20216;-74
2022/07/19 03:30:21;;;;;;;3.80;3.50;;;25.50;99.90;;;;;;5025170;28;20195;-74
2022/07/19 03:32:49;;;;;;;4.57;4.18;;;25.50;99.90;;;;;;5027149;28;20725;-77
2022/07/19 03:35:16;;;;;;;4.82;4.38;;;25.50;99.90;;;;;;5027165;28;20688;-77
2022/07/19 03:37:43;;;;;;;4.85;4.38;;;25.40;99.90;;;;;;5025413;28;20222;-75
2022/07/19 03:40:12;;;;;;;4.88;4.47;;;25.40;99.90;;;;;;5024131;28;20234;-76
2022/07/19 03:42:40;;;;;;;4.65;3.90;;;25.40;99.90;;;;;;5027422;28;20632;-77
2022/07/19 03:45:08;;;;;;;4.13;3.83;;;25.40;99.90;;;;;;5025469;28;20208;-76
2022/07/19 03:47:35;;;;;;;4.28;3.88;;;25.40;99.90;;;;;;5019704;28;20219;-76
2022/07/19 03:50:02;;;;;;;4.10;3.67;;;25.30;99.90;;;;;;5019416;28;20721;-76
2022/07/19 03:52:29;;;;;;;4.05;3.65;;;25.30;99.90;;;;;;5025540;28;20211;-76
2022/07/19 03:54:56;;;;;;;4.15;3.85;;;25.30;99.90;;;;;;5027803;28;20598;-75
2022/07/19 03:57:24;;;;;;;4.35;3.78;;;25.30;99.90;;;;;;5020515;28;20223;-75
2022/07/19 03:59:51;;;;;;;4.03;3.72;;;25.30;99.90;;;;;;5025107;28;20216;-76
2022/07/19 04:02:18;;;;;;;4.47;4.13;;;25.30;99.90;;;;;;5021844;28;20231;-75
2022/07/19 04:04:46;;;;;;;4.07;3.78;;;25.30;99.90;;;;;;5026900;28;20208;-76
2022/07/19 04:07:13;;;;;;;4.30;4.00;;;25.30;99.90;;;;;;5022513;28;20226;-76
2022/07/19 04:09:40;;;;;;;4.03;3.72;;;25.30;99.90;;;;;;5022330;28;20698;-77
2022/07/19 04:12:07;;;;;;;4.25;3.95;;;25.30;99.90;;;;;;5025877;28;20224;-77
2022/07/19 04:14:35;;;;;;;4.25;3.85;;;25.30;99.90;;;;;;5024941;28;20231;-76
2022/07/19 04:17:04;;;;;;;3.97;3.67;;;25.20;99.90;;;;;;5027200;28;20234;-76
2022/07/19 04:19:31;;;;;;;5.13;4.40;;;25.20;99.90;;;;;;5029003;28;20317;-77
2022/07/19 04:21:58;;;;;;;4.47;4.07;;;25.30;99.90;;;;;;5026802;28;20206;-77
2022/07/19 04:24:25;;;;;;;4.50;4.20;;;25.30;99.90;;;;;;5020740;28;20195;-76
2022/07/19 04:26:52;;;;;;;4.40;4.00;;;25.30;99.90;;;;;;5022108;28;20203;-76
2022/07/19 04:29:19;;;;;;;4.00;3.70;;;25.40;99.90;;;;;;5023933;28;20230;-76
2022/07/19 04:31:48;;;;;;;3.70;3.40;;;25.50;99.90;;;;;;5022982;28;20545;-77
2022/07/19 04:34:15;;;;;;;3.97;3.58;;;25.50;99.90;;;;;;5019996;28;20215;-75
2022/07/19 04:36:42;;;;;;;4.28;3.63;;;25.60;99.90;;;;;;5023846;28;20207;-77
2022/07/19 04:39:09;;;;;;;4.65;3.88;;;25.70;99.90;;;;;;5031802;28;20221;-78
2022/07/19 04:41:36;;;;;;;4.55;4.15;;;25.70;99.90;;;;;;5024781;28;20196;-78
2022/07/19 04:44:03;;;;;;;3.95;3.58;;;25.60;99.90;;;;;;5027994;28;20211;-79
2022/07/19 04:46:30;;;;;;;3.70;3.40;;;25.60;99.90;;;;;;5021012;28;20203;-78
2022/07/19 04:48:59;;;;;;;3.50;3.30;;;25.50;99.90;;;;;;5022420;28;20285;-77
2022/07/19 04:51:26;;;;;;;3.55;3.35;;;25.50;99.90;;;;;;5027199;28;20226;-78
2022/07/19 04:53:53;;;;;;;3.78;3.47;;;25.50;99.90;;;;;;5028835;28;20239;-77
2022/07/19 04:56:20;;;;;;;3.67;3.45;;;25.50;99.90;;;;;;5027644;28;20196;-77
2022/07/19 04:58:47;;;;;;;3.55;3.35;;;25.40;99.90;;;;;;5021067;28;20216;-78
2022/07/19 05:01:14;;;;;;;3.72;3.40;;;25.30;99.90;;;;;;5027890;28;20199;-79
2022/07/19 05:03:41;;;;;;;3.95;3.65;;;25.40;99.90;;;;;;5046083;28;20221;-79
2022/07/19 05:06:10;;;;;;;3.90;3.50;;;25.40;99.90;;;;;;5051482;28;20199;-78
2022/07/19 05:08:37;;;;;;;3.80;3.50;;;25.50;99.90;;;;;;5047532;28;20250;-77
2022/07/19 05:11:05;;;;;;;4.15;3.75;;;25.60;99.90;;;;;;5049149;28;20240;-78
2022/07/19 05:13:32;;;;;;;4.28;3.85;;;25.60;99.90;;;;;;5053134;28;20222;-78
2022/07/19 05:15:59;;;;;;;4.03;3.70;;;25.50;99.90;;;;;;5051767;28;20568;-79
2022/07/19 05:18:26;;;;;;;4.05;3.70;;;25.40;99.90;;;;;;5048775;28;20731;-78
2022/07/19 05:20:53;;;;;;;4.10;3.80;;;25.40;99.90;;;;;;5063287;28;20564;-78
2022/07/19 05:23:21;;;;;;;4.32;3.83;;;25.30;99.90;;;;;;5052639;28;20206;-78
2022/07/19 05:25:48;;;;;;;5.03;3.80;;;25.30;99.90;;;;;;5052631;28;20210;-79
2022/07/19 05:28:15;;;;;;;4.53;4.20;;;25.30;99.90;;;;;;5052975;28;20738;-79
2022/07/19 05:30:43;;;;;;;4.03;3.70;;;25.30;99.90;;;;;;5051211;28;20199;-78
2022/07/19 05:33:10;;;;;;;4.63;4.22;;;25.30;99.90;;;;;;5056858;28;20242;-78
2022/07/19 05:35:38;;;;;;;4.65;4.25;;;25.40;99.90;;;;;;5049893;28;20221;-78
2022/07/19 05:38:05;;;;;;;4.40;4.10;;;25.40;99.90;;;;;;5052591;28;20219;-78
2022/07/19 05:40:33;;;;;;;3.70;3.40;;;25.50;99.90;;;;;;5054561;28;20214;-78
2022/07/19 05:43:01;;;;;;;4.60;4.25;;;25.60;99.90;;;;;;5043557;28;20210;-78
2022/07/19 05:45:28;;;;;;;4.43;4.00;;;25.60;99.90;;;;;;5049203;28;20275;-77
2022/07/19 05:47:56;;;;;;;4.55;4.15;;;25.70;99.90;;;;;;5050320;28;20215;-78
2022/07/19 05:50:23;;;;;;;4.53;4.10;;;25.70;99.90;;;;;;5041949;28;20696;-77
2022/07/19 05:52:50;;;;;;;4.68;4.28;;;25.70;99.90;;;;;;5054391;28;20218;-79
2022/07/19 05:55:17;;;;;;;4.88;4.47;;;25.80;99.90;;;;;;5051112;28;20215;-78
2022/07/19 05:57:45;;;;;;;5.03;4.63;;;25.80;99.90;;;;;;5054563;28;20573;-78
2022/07/19 06:00:14;;;;;;;6.35;4.45;;;25.70;99.90;;;;;;5054130;28;20214;-79
2022/07/19 06:02:41;;;;;;;5.38;4.65;;;25.70;99.90;;;;;;5059935;28;20210;-79
2022/07/19 06:05:09;;;;;;;5.10;4.65;;;25.70;99.90;;;;;;5050055;28;20286;-77
2022/07/19 06:07:36;;;;;;;5.03;4.20;;;25.60;99.90;;;;;;5054558;28;20211;-79
2022/07/19 06:10:04;;;;;;;6.70;4.85;;;25.60;99.90;;;;;;5051888;28;20705;-78
2022/07/19 06:12:31;;;;;;;4.85;4.32;;;25.70;99.90;;;;;;5050990;28;20221;-78
2022/07/19 06:14:59;;;;;;;5.47;4.03;;;25.70;99.90;;;;;;5055629;28;20214;-80
2022/07/19 06:17:26;;;;;;;4.88;4.47;;;25.70;99.90;;;;;;5055593;28;20227;-80
2022/07/19 06:19:53;;;;;;;4.65;4.35;;;25.60;99.90;;;;;;5043727;28;20223;-79
2022/07/19 06:22:21;;;;;;;5.65;5.05;;;25.50;99.90;;;;;;5044433;28;20235;-79
2022/07/19 06:24:48;;;;;;;5.93;5.03;;;25.50;99.90;;;;;;5054281;28;20198;-79
2022/07/19 06:27:15;;;;;;;4.38;3.95;;;25.60;99.90;;;;;;5043673;28;20231;-81
2022/07/19 06:29:42;;;;;;;5.00;4.60;;;25.70;99.90;;;;;;5054232;28;20211;-79
2022/07/19 06:32:11;;;;;;;5.72;5.25;;;25.70;99.90;;;;;;5056283;28;20230;-79
2022/07/19 06:34:38;;;;;;;5.88;4.90;;;25.80;99.90;;;;;;5048232;28;20210;-79
2022/07/19 06:37:05;;;;;;;6.15;5.43;;;26.10;99.90;;;;;;5054159;28;20234;-79
2022/07/19 06:39:32;;;;;;;7.38;5.72;;;26.30;99.90;;;;;;5067951;28;20215;-79
2022/07/19 06:42:01;;;;;;;5.60;5.10;;;26.30;99.90;;;;;;5057823;28;20214;-79
2022/07/19 06:44:28;;;;;;;5.38;4.88;;;26.20;99.90;;;;;;5052644;28;20282;-79
2022/07/19 06:46:55;;;;;;;6.55;4.70;;;26.00;99.90;;;;;;5051533;28;20684;-80
2022/07/19 06:50:02;;;;;;;5.32;4.90;;;25.90;99.90;;;;;;5050027;28;20632;-80
2022/07/19 06:52:34;;;;;;;5.07;4.68;;;26.00;99.90;;;;;;5041095;28;20211;-79
2022/07/19 06:55:01;;;;;;;5.57;5.13;;;26.40;99.90;;;;;;5051683;28;20222;-79
2022/07/19 06:57:28;;;;;;;5.20;4.80;;;26.50;99.90;;;;;;5041025;28;20632;-78
2022/07/19 06:59:55;;;;;;;4.95;4.43;;;26.70;99.90;;;;;;5044672;28;20214;-77
2022/07/19 07:02:22;;;;;;;5.60;5.10;;;26.90;99.90;;;;;;5043865;28;20222;-78
2022/07/19 07:04:50;;;;;;;5.40;5.00;;;26.90;99.90;;;;;;5038489;28;20195;-77
2022/07/19 07:07:17;;;;;;;5.90;5.40;;;26.90;99.90;;;;;;5043710;28;20211;-79
2022/07/19 07:09:45;;;;;;;5.53;5.13;;;27.10;99.90;;;;;;5049578;28;20231;-78
2022/07/19 07:12:12;;;;;;;6.25;5.65;;;27.20;99.90;;;;;;5039087;28;20693;-79
2022/07/19 07:14:40;;;;;;;5.32;4.80;;;27.20;99.90;;;;;;5042053;28;20214;-77
2022/07/19 07:17:07;;;;;;;5.88;5.38;;;27.30;99.90;;;;;;5049310;28;21180;-78
2022/07/19 07:19:34;;;;;;;6.25;5.65;;;27.40;99.90;;;;;;5060886;22;20231;-75
2022/07/19 07:22:01;;;;;;;6.03;5.40;;;27.40;99.90;;;;;;5026288;28;20203;-75
2022/07/19 07:24:28;;;;;;;5.47;5.07;;;27.60;99.90;;;;;;5024481;28;20207;-74
2022/07/19 07:26:57;;;;;;;6.40;5.80;;;27.70;99.90;;;;;;5027850;28;20192;-76
2022/07/19 07:29:24;;;;;;;9.30;5.30;;;27.80;99.90;;;;;;5025062;28;20239;-76
2022/07/19 07:31:51;;;;;;;5.78;5.07;;;27.80;99.90;;;;;;5031597;28;20192;-76
2022/07/19 07:34:18;;;;;;;5.55;4.65;;;28.00;99.90;;;;;;5031934;28;20216;-74
2022/07/19 07:36:46;;;;;;;5.82;5.15;;;28.10;99.90;;;;;;5027388;28;20198;-77
2022/07/19 07:39:14;;;;;;;5.78;5.30;;;28.20;99.90;;;;;;5038194;28;20233;-78
2022/07/19 07:41:41;;;;;;;7.20;5.10;;;28.20;99.90;;;;;;5041515;28;20203;-77
2022/07/19 07:44:10;;;;;;;6.05;5.55;;;28.40;99.90;;;;;;5038002;28;20227;-77
2022/07/19 07:46:37;;;;;;;5.75;5.25;;;28.40;99.90;;;;;;5039906;28;20222;-77
2022/07/19 07:49:04;;;;;;;6.57;5.43;;;28.40;99.90;;;;;;5038116;28;20220;-75
2022/07/19 07:51:32;;;;;;;6.05;5.55;;;28.50;99.90;;;;;;5034833;28;20245;-76
2022/07/19 07:54:00;;;;;;;6.07;5.10;;;28.60;99.90;;;;;;5036980;28;20219;-77
2022/07/19 07:56:30;;;;;;;5.97;5.47;;;28.60;99.90;;;;;;5036446;28;20389;-78
2022/07/19 07:58:57;;;;;;;5.30;4.88;;;28.60;99.90;;;;;;5037342;28;20239;-77
2022/07/19 08:01:25;;;;;;;5.40;4.90;;;28.70;99.90;;;;;;5026911;28;20204;-75
2022/07/19 08:03:52;;;;;;;5.47;4.97;;;28.80;99.90;;;;;;5032689;28;20221;-77
2022/07/19 08:06:19;;;;;;;5.55;5.05;;;28.90;99.90;;;;;;5033332;28;20196;-77
2022/07/19 08:08:47;;;;;;;5.50;5.10;;;29.00;99.90;;;;;;5029843;28;20251;-77
2022/07/19 08:11:14;;;;;;;6.75;5.50;;;29.00;99.90;;;;;;5026764;28;20207;-76
2022/07/19 08:13:41;;;;;;;5.78;5.28;;;29.00;99.90;;;;;;5030608;28;20226;-76
2022/07/19 08:16:08;;;;;;;6.30;5.60;;;29.00;99.90;;;;;;5036638;28;20208;-77
2022/07/19 08:18:36;;;;;;;5.40;4.90;;;29.10;99.90;;;;;;5030179;28;20217;-76
2022/07/19 08:21:04;;;;;;;6.13;5.53;;;29.10;99.90;;;;;;5030873;28;20195;-78
2022/07/19 08:23:31;;;;;;;5.38;4.97;;;29.20;99.90;;;;;;5031249;28;20230;-76
2022/07/19 08:25:58;;;;;;;6.05;5.45;;;29.30;99.90;;;;;;5032857;28;20265;-75
2022/07/19 08:28:25;;;;;;;6.10;5.50;;;29.30;99.90;;;;;;5029239;28;20216;-75
2022/07/19 08:30:52;;;;;;;6.85;5.30;;;29.40;99.90;;;;;;5023634;28;20195;-76
2022/07/19 08:33:19;;;;;;;6.40;5.80;;;29.60;99.90;;;;;;5022397;28;20235;-75
2022/07/19 08:35:48;;;;;;;5.80;5.15;;;29.70;99.90;;;;;;5024203;28;20218;-77
2022/07/19 08:38:15;;;;;;;7.25;6.05;;;29.80;99.90;;;;;;5026145;28;20228;-77
2022/07/19 08:40:43;;;;;;;6.00;5.50;;;30.00;99.90;;;;;;5023697;28;20211;-77
2022/07/19 08:43:12;;;;;;;5.70;5.20;;;30.10;99.90;;;;;;5028404;28;20285;-77
2022/07/19 08:45:41;;;;;;;6.05;5.55;;;30.20;99.90;;;;;;5030407;28;20278;-76
2022/07/19 08:48:08;;;;;;;5.65;5.15;;;30.10;99.90;;;;;;5032629;28;20227;-76
2022/07/19 08:50:35;;;;;;;5.65;5.25;;;30.20;99.90;;;;;;5035191;28;20220;-77
2022/07/19 08:53:04;;;;;;;6.15;5.30;;;30.30;99.90;;;;;;5030033;28;20651;-77
2022/07/19 08:55:31;;;;;;;5.88;5.38;;;30.40;99.90;;;;;;5028658;28;20223;-76
2022/07/19 08:57:57;;;;;;;5.80;5.30;;;30.50;99.90;;;;;;5028336;28;20223;-75
2022/07/19 09:00:25;;;;;;;6.35;5.75;;;30.60;99.90;;;;;;5027002;28;20682;-76
2022/07/19 09:02:54;;;;;;;5.32;4.93;;;30.70;99.90;;;;;;5033073;28;20228;-76
2022/07/19 09:05:22;;;;;;;5.32;4.93;;;30.80;99.90;;;;;;5028795;28;20200;-76
2022/07/19 09:08:08;;;;;;;5.90;5.38;;;30.90;99.90;;;;;;5033640;28;20227;-76
2022/07/19 09:10:38;;;;;;;5.47;4.93;;;31.20;99.90;;;;;;5022336;28;20768;-77
2022/07/19 09:13:08;;;;;;;5.53;5.13;;;31.20;99.90;;;;;;5030664;28;20752;-76
2022/07/19 09:15:46;;;;;;;6.35;5.68;;;31.20;99.90;;;;;;5023986;28;20297;-76
2022/07/19 09:18:17;;;;;;;5.80;5.20;;;31.30;99.90;;;;;;5026947;28;20230;-76
2022/07/19 09:20:46;;;;;;;5.25;4.85;;;31.20;99.90;;;;;;5024559;28;20207;-76
2022/07/19 09:23:15;;;;;;;5.13;4.63;;;31.30;99.90;;;;;;5026318;28;20302;-77
2022/07/19 09:25:44;;;;;;;6.65;5.50;;;31.30;99.90;;;;;;5021443;28;20194;-77
2022/07/19 09:28:12;;;;;;;5.22;4.82;;;31.30;99.90;;;;;;5033458;28;20295;-77
2022/07/19 09:30:41;;;;;;;5.35;4.85;;;31.50;99.90;;;;;;5030405;28;20258;-76
2022/07/19 09:33:11;;;;;;;4.28;3.97;;;31.60;99.90;;;;;;5021735;28;20433;-77
2022/07/19 09:35:42;;;;;;;4.78;4.35;;;31.50;99.90;;;;;;5023182;28;20247;-77
2022/07/19 09:38:21;;;;;;;5.50;5.00;;;31.40;99.90;;;;;;5026141;28;20270;-77
2022/07/19 09:40:48;;;;;;;5.85;5.30;;;31.40;99.90;;;;;;5026953;28;20183;-76
2022/07/19 09:43:15;;;;;;;5.60;5.10;;;31.40;99.90;;;;;;5025281;28;20215;-76
2022/07/19 09:45:42;;;;;;;5.13;4.53;;;31.30;99.90;;;;;;5022246;28;20195;-77
2022/07/19 09:48:10;;;;;;;4.90;4.50;;;31.40;99.90;;;;;;5029527;28;20226;-76
2022/07/19 09:50:37;;;;;;;5.68;5.18;;;31.50;99.90;;;;;;5028208;28;20756;-75
2022/07/19 09:53:06;;;;;;;5.35;4.85;;;31.40;99.90;;;;;;5028521;28;20219;-76
2022/07/19 09:55:35;;;;;;;5.32;4.82;;;31.60;99.90;;;;;;5029824;28;20227;-76
2022/07/19 09:58:03;;;;;;;6.13;4.95;;;31.70;99.90;;;;;;5026693;28;20737;-76
2022/07/19 10:00:30;;;;;;;5.05;4.50;;;31.70;99.90;;;;;;5032416;28;20226;-77
2022/07/19 10:03:00;;;;;;;5.63;5.13;;;31.90;99.90;;;;;;5029860;28;20223;-76
2022/07/19 10:05:29;;;;;;;5.28;4.88;;;32.10;99.90;;;;;;5030021;28;20461;-76
2022/07/19 10:07:57;;;;;;;5.00;4.60;;;32.30;99.90;;;;;;5033661;28;20216;-77
2022/07/19 10:10:30;;;;;;;6.80;5.13;;;32.30;99.90;;;;;;5031263;28;20234;-76
2022/07/19 10:12:59;;;;;;;5.28;4.72;;;32.30;99.90;;;;;;5031092;28;20282;-76
2022/07/19 10:15:27;;;;;;;5.47;4.97;;;32.20;99.90;;;;;;5031785;28;20314;-77
2022/07/19 10:18:09;;;;;;;4.75;4.22;;;32.20;99.90;;;;;;5028256;28;20247;-77
2022/07/19 10:20:38;;;;;;;4.97;4.57;;;32.30;99.90;;;;;;5031722;28;21192;-76
2022/07/19 10:23:06;;;;;;;5.57;5.05;;;32.40;99.90;;;;;;5029189;28;20231;-76
2022/07/19 10:25:41;;;;;;;5.75;5.15;;;32.70;99.90;;;;;;5032318;28;20203;-77
2022/07/19 10:28:29;;;;;;;5.05;4.45;;;32.80;99.90;;;;;;5022744;28;20219;-78
2022/07/19 10:30:56;;;;;;;5.32;4.88;;;33.00;99.90;;;;;;5024590;28;20199;-75
2022/07/19 10:33:29;;;;;;;4.88;4.47;;;33.20;99.90;;;;;;5023109;28;20311;-77
2022/07/19 10:35:56;;;;;;;5.03;4.55;;;33.20;99.90;;;;;;5023272;28;20712;-77
2022/07/19 10:38:23;;;;;;;6.25;4.90;;;32.90;99.90;;;;;;5027622;28;20226;-76
2022/07/19 10:40:56;;;;;;;7.18;5.05;;;32.90;99.90;;;;;;5024863;28;20196;-76
2022/07/19 10:43:25;;;;;;;4.85;4.45;;;32.80;99.90;;;;;;5019704;28;20254;-76
2022/07/19 10:46:13;;;;;;;5.32;4.93;;;32.90;99.90;;;;;;5023351;28;20194;-75
2022/07/19 10:48:41;;;;;;;5.53;5.03;;;33.10;99.80;;;;;;5023444;28;20604;-75
2022/07/19 10:51:11;;;;;;;5.18;4.78;;;33.10;99.90;;;;;;5025285;28;20215;-76
2022/07/19 10:53:57;;;;;;;5.70;5.10;;;33.00;99.90;;;;;;5022375;28;20227;-76
2022/07/19 10:56:30;;;;;;;5.57;5.05;;;33.20;99.30;;;;;;5021673;28;20228;-75
2022/07/19 10:58:59;;;;;;;4.90;4.50;;;33.30;98.90;;;;;;5022969;28;20401;-74
2022/07/19 11:01:29;;;;;;;5.03;4.63;;;33.40;98.90;;;;;;5019983;28;20195;-75
2022/07/19 11:04:23;;;;;;;7.05;5.13;;;33.60;98.20;;;;;;5021572;28;20855;-75
2022/07/19 11:06:51;;;;;;;5.53;5.03;;;33.50;98.80;;;;;;5020111;28;20226;-76
2022/07/19 11:09:18;;;;;;;5.68;5.07;;;33.70;97.70;;;;;;5011361;28;20298;-75
2022/07/19 11:11:45;;;;;;;5.45;4.85;;;33.90;96.60;;;;;;5021253;28;20211;-75
2022/07/19 11:14:12;;;;;;;5.72;5.22;;;34.00;97.10;;;;;;5016789;28;20246;-75
2022/07/19 11:16:41;;;;;;;6.03;4.72;;;34.20;96.50;;;;;;5020151;28;20713;-76
2022/07/19 11:19:10;;;;;;;5.47;4.88;;;34.20;96.10;;;;;;5018535;28;20246;-74
2022/07/19 11:21:38;;;;;;;5.50;4.88;;;34.20;95.60;;;;;;5018811;28;20235;-75
2022/07/19 11:24:06;;;;;;;5.20;4.70;;;34.10;95.60;;;;;;5019168;28;20230;-76
2022/07/19 11:26:38;;;;;;;5.10;4.70;;;33.90;95.50;;;;;;5019277;28;20659;-74
2022/07/19 11:29:06;;;;;;;5.38;4.80;;;33.90;95.50;;;;;;5017555;28;21771;-75
2022/07/19 11:31:33;;;;;;;5.25;4.75;;;34.00;96.00;;;;;;5015211;28;20670;-76
2022/07/19 11:34:02;;;;;;;5.78;4.50;;;34.00;95.40;;;;;;5013992;28;20830;-75
2022/07/19 11:36:29;;;;;;;5.55;4.80;;;34.10;94.90;;;;;;5020278;28;20695;-74
2022/07/19 11:38:58;;;;;;;4.75;4.28;;;34.10;95.40;;;;;;5017896;28;20242;-73
2022/07/19 11:41:27;;;;;;;5.38;4.85;;;34.30;94.60;;;;;;5021178;28;20195;-75
2022/07/19 11:43:55;;;;;;;5.47;4.85;;;34.60;94.50;;;;;;5024217;28;20284;-74
2022/07/19 11:46:23;;;;;;;5.35;4.85;;;34.90;94.60;;;;;;5023037;28;20200;-73
2022/07/19 11:48:50;;;;;;;6.22;4.80;;;34.90;94.50;;;;;;5020916;28;20227;-75
2022/07/19 11:51:19;;;;;;;4.57;4.18;;;34.90;94.20;;;;;;5021052;28;20198;-73
2022/07/19 11:53:51;;;;;;;4.95;4.55;;;34.80;94.10;;;;;;5017197;28;20247;-77
2022/07/19 11:56:19;;;;;;;5.00;4.50;;;34.70;93.30;;;;;;5011781;28;20255;-74
2022/07/19 11:58:47;;;;;;;5.32;4.80;;;34.70;93.90;;;;;;5014703;28;20816;-76
2022/07/19 12:01:15;;;;;;;5.32;4.50;;;34.70;93.10;;;;;;5020806;28;20196;-74
2022/07/19 12:03:54;;;;;;;5.57;4.70;;;34.70;93.50;;;;;;5022015;28;20224;-76
2022/07/19 12:06:36;;;;;;;10.15;5.00;;;34.80;93.60;;;;;;5018422;28;20202;-76
2022/07/19 12:09:06;;;;;;;5.22;4.82;;;34.80;92.00;;;;;;5027034;28;20248;-76
2022/07/19 12:11:40;;;;;;;4.50;4.10;;;34.90;92.70;;;;;;5020507;28;20738;-76
2022/07/19 12:14:19;;;;;;;5.25;4.72;;;34.90;92.10;;;;;;5021114;28;20218;-75
2022/07/19 12:16:47;;;;;;;5.70;5.10;;;35.00;91.70;;;;;;5022902;28;20211;-74
2022/07/19 12:19:17;;;;;;;5.22;4.75;;;35.00;92.40;;;;;;5021409;28;20250;-76
2022/07/19 12:21:45;;;;;;;5.57;4.72;;;35.00;92.00;;;;;;5025645;28;20704;-74
2022/07/19 12:24:24;;;;;;;5.40;4.90;;;35.10;92.20;;;;;;5018573;28;20196;-75
2022/07/19 12:27:03;;;;;;;4.93;4.53;;;35.10;91.00;;;;;;5022800;28;20198;-76
2022/07/19 12:29:32;;;;;;;4.93;4.53;;;35.10;91.10;;;;;;5020239;28;20231;-76
2022/07/19 12:32:01;;;;;;;7.47;4.22;;;35.10;91.60;;;;;;5023435;28;20202;-76
2022/07/19 12:34:29;;;;;;;5.88;5.38;;;35.00;90.70;;;;;;5026442;28;20199;-74
2022/07/19 12:36:58;;;;;;;4.85;4.45;;;35.10;90.70;;;;;;5019287;28;20226;-75
2022/07/19 12:39:28;;;;;;;6.40;4.88;;;35.10;90.90;;;;;;5025074;28;20643;-76
2022/07/19 12:42:06;;;;;;;4.80;4.38;;;35.20;90.60;;;;;;5019744;28;20207;-76
2022/07/19 12:44:35;;;;;;;4.40;4.10;;;35.30;90.90;;;;;;5024492;28;20692;-75
2022/07/19 12:47:02;;;;;;;4.93;4.30;;;35.20;90.40;;;;;;5022111;28;20259;-74
2022/07/19 12:49:42;;;;;;;6.65;4.55;;;35.30;90.70;;;;;;5018271;28;20220;-75
2022/07/19 12:52:11;;;;;;;5.20;4.13;;;35.50;90.00;;;;;;5019292;28;20246;-74
2022/07/19 12:54:38;;;;;;;5.00;4.30;;;35.60;90.50;;;;;;5021311;28;20695;-74
2022/07/19 12:57:05;;;;;;;7.20;4.03;;;35.80;90.60;;;;;;5021091;28;20241;-75